createdAt,value
2022-10-18T00:00:50.889Z,8.38
2022-10-18T00:03:35.837Z,8.33
2022-10-18T00:06:04.172Z,8.28
2022-10-18T00:08:32.335Z,8.23
2022-10-18T00:10:59.922Z,8.19
2022-10-18T00:13:27.571Z,8.17
2022-10-18T00:15:59.386Z,8.19
2022-10-18T00:18:28.329Z,8.21
2022-10-18T00:20:58.560Z,8.25
2022-10-18T00:23:27.784Z,8.28
2022-10-18T00:26:02.740Z,8.32
2022-10-18T00:28:31.070Z,8.38
2022-10-18T00:31:09.408Z,8.43
2022-10-18T00:33:36.975Z,8.47
2022-10-18T00:36:04.918Z,8.45
2022-10-18T00:38:32.440Z,8.43
2022-10-18T00:41:00.114Z,8.42
2022-10-18T00:43:27.806Z,8.40
2022-10-18T00:45:55.329Z,8.36
2022-10-18T00:48:23.801Z,8.30
2022-10-18T00:50:53.154Z,8.26
2022-10-18T00:53:22.907Z,8.20
2022-10-18T00:55:50.840Z,8.16
2022-10-18T00:58:19.815Z,8.11
2022-10-18T01:00:47.355Z,8.06
2022-10-18T01:03:14.903Z,8.01
2022-10-18T01:05:46.156Z,7.92
2022-10-18T01:08:44.765Z,7.81
2022-10-18T01:11:33.431Z,7.69
2022-10-18T01:14:30.287Z,7.59
2022-10-18T01:17:08.344Z,7.53
2022-10-18T01:20:04.084Z,7.47
2022-10-18T01:22:39.490Z,7.41
2022-10-18T01:25:38.107Z,7.36
2022-10-18T01:28:24.346Z,7.32
2022-10-18T01:31:00.055Z,7.28
2022-10-18T01:33:46.216Z,7.27
2022-10-18T01:36:26.988Z,7.28
2022-10-18T01:38:58.800Z,7.29
2022-10-18T01:41:27.525Z,7.30
2022-10-18T01:44:01.067Z,7.30
2022-10-18T01:46:29.718Z,7.30
2022-10-18T01:48:58.161Z,7.30
2022-10-18T01:51:27.929Z,7.31
2022-10-18T01:53:56.024Z,7.33
2022-10-18T01:56:42.451Z,7.34
2022-10-18T01:59:33.200Z,7.37
2022-10-18T02:02:23.286Z,7.42
2022-10-18T02:05:10.561Z,7.41
2022-10-18T02:08:12.018Z,7.34
2022-10-18T02:10:49.781Z,7.22
2022-10-18T02:13:20.894Z,7.14
2022-10-18T02:15:54.784Z,7.06
2022-10-18T02:18:29.366Z,6.98
2022-10-18T02:20:58.819Z,6.91
2022-10-18T02:23:27.015Z,6.84
2022-10-18T02:25:55.307Z,6.79
2022-10-18T02:31:07.470Z,6.68
2022-10-18T02:33:52.674Z,6.64
2022-10-18T02:36:27.748Z,6.60
2022-10-18T02:39:03.754Z,6.57
2022-10-18T02:41:32.443Z,6.57
2022-10-18T02:44:00.163Z,6.55
2022-10-18T02:49:00.572Z,6.55
2022-10-18T02:51:28.398Z,6.54
2022-10-18T02:53:56.057Z,6.53
2022-10-18T02:56:23.825Z,6.55
2022-10-18T02:58:51.554Z,6.60
2022-10-18T03:01:19.305Z,6.66
2022-10-18T03:03:46.961Z,6.76
2022-10-18T03:06:14.614Z,6.85
2022-10-18T03:08:42.389Z,6.95
2022-10-18T03:11:09.999Z,7.02
2022-10-18T03:13:37.803Z,7.10
2022-10-18T03:16:05.789Z,7.17
2022-10-18T03:18:33.715Z,7.21
2022-10-18T03:21:06.482Z,7.23
2022-10-18T03:23:34.242Z,7.23
2022-10-18T03:26:02.336Z,7.22
2022-10-18T03:28:29.991Z,7.19
2022-10-18T03:31:02.257Z,7.15
2022-10-18T03:33:31.767Z,7.10
2022-10-18T03:35:59.562Z,7.03
2022-10-18T03:38:27.360Z,6.98
2022-10-18T03:40:54.971Z,6.91
2022-10-18T03:43:23.473Z,6.85
2022-10-18T03:45:53.361Z,6.79
2022-10-18T03:48:21.661Z,6.72
2022-10-18T03:50:49.252Z,6.65
2022-10-18T03:53:16.937Z,6.58
2022-10-18T03:55:44.728Z,6.49
2022-10-18T03:58:12.282Z,6.42
2022-10-18T04:00:39.834Z,6.37
2022-10-18T04:03:07.477Z,6.31
2022-10-18T04:05:36.469Z,6.26
2022-10-18T04:08:04.707Z,6.22
2022-10-18T04:10:32.359Z,6.20
2022-10-18T04:12:59.978Z,6.21
2022-10-18T04:15:27.645Z,6.24
2022-10-18T04:17:56.735Z,6.27
2022-10-18T04:20:25.330Z,6.31
2022-10-18T04:22:55.209Z,6.37
2022-10-18T04:25:55.271Z,6.44
2022-10-18T04:28:23.079Z,6.51
2022-10-18T04:30:52.261Z,6.56
2022-10-18T04:33:20.432Z,6.59
2022-10-18T04:35:51.920Z,6.63
2022-10-18T04:38:20.153Z,6.67
2022-10-18T04:40:47.849Z,6.68
2022-10-18T04:43:15.625Z,6.63
2022-10-18T04:45:45.814Z,6.59
2022-10-18T04:48:15.120Z,6.57
2022-10-18T04:50:42.971Z,6.55
2022-10-18T04:53:16.016Z,6.52
2022-10-18T04:55:46.742Z,6.47
2022-10-18T04:58:16.895Z,6.41
2022-10-18T05:00:45.420Z,6.35
2022-10-18T05:03:14.290Z,6.32
2022-10-18T05:06:03.239Z,6.27
2022-10-18T05:08:34.839Z,6.23
2022-10-18T05:11:03.775Z,6.21
2022-10-18T05:13:31.568Z,6.20
2022-10-18T05:16:00.146Z,6.20
2022-10-18T05:18:28.508Z,6.21
2022-10-18T05:20:57.423Z,6.22
2022-10-18T05:23:25.245Z,6.26
2022-10-18T05:25:59.290Z,6.32
2022-10-18T05:28:39.661Z,6.37
2022-10-18T05:31:10.622Z,6.36
2022-10-18T05:33:38.903Z,6.31
2022-10-18T05:36:07.245Z,6.25
2022-10-18T05:38:37.899Z,6.27
2022-10-18T05:41:06.009Z,6.27
2022-10-18T05:43:39.380Z,6.31
2022-10-18T05:46:13.728Z,6.37
2022-10-18T05:48:44.633Z,6.45
2022-10-18T05:51:12.514Z,6.51
2022-10-18T05:53:40.268Z,6.59
2022-10-18T05:56:08.851Z,6.66
2022-10-18T05:58:37.191Z,6.75
2022-10-18T06:01:06.066Z,6.83
2022-10-18T06:03:34.505Z,6.92
2022-10-18T06:06:04.686Z,7.00
2022-10-18T06:08:33.357Z,7.06
2022-10-18T06:11:07.468Z,7.14
2022-10-18T06:13:35.284Z,7.22
2022-10-18T06:16:03.148Z,7.26
2022-10-18T06:18:32.128Z,7.32
2022-10-18T06:20:59.789Z,7.50
2022-10-18T06:23:28.637Z,7.82
2022-10-18T06:26:01.126Z,8.16
2022-10-18T06:28:30.106Z,8.23
2022-10-18T06:30:58.300Z,8.09
2022-10-18T06:33:26.340Z,8.05
2022-10-18T06:36:06.317Z,8.03
2022-10-18T06:38:37.837Z,8.06
2022-10-18T06:41:09.421Z,8.10
2022-10-18T06:43:39.653Z,8.12
2022-10-18T06:46:09.012Z,8.15
2022-10-18T06:48:39.977Z,8.18
2022-10-18T06:51:30.177Z,8.23
2022-10-18T06:54:16.779Z,8.32
2022-10-18T06:56:47.694Z,8.39
2022-10-18T06:59:20.483Z,8.48
2022-10-18T07:02:24.073Z,8.57
2022-10-18T07:04:56.376Z,8.71
2022-10-18T07:07:35.654Z,8.83
2022-10-18T07:10:21.253Z,8.94
2022-10-18T07:12:59.174Z,9.07
2022-10-18T07:15:38.790Z,9.19
2022-10-18T07:18:07.139Z,9.29
2022-10-18T07:20:36.639Z,9.38
2022-10-18T07:23:13.787Z,9.48
2022-10-18T07:25:41.597Z,9.56
2022-10-18T07:28:09.740Z,9.65
2022-10-18T07:30:39.913Z,9.71
2022-10-18T07:33:43.650Z,9.78
2022-10-18T07:36:23.574Z,9.83
2022-10-18T07:38:56.693Z,9.86
2022-10-18T07:41:26.877Z,9.89
2022-10-18T07:44:06.461Z,9.95
2022-10-18T07:47:02.370Z,10.02
2022-10-18T07:49:31.147Z,10.11
2022-10-18T07:51:59.105Z,10.21
2022-10-18T07:54:30.819Z,10.31
2022-10-18T07:57:01.726Z,10.43
2022-10-18T07:59:29.585Z,10.46
2022-10-18T08:02:35.784Z,10.50
2022-10-18T08:05:14.166Z,10.61
2022-10-18T08:07:52.739Z,10.76
2022-10-18T08:10:49.806Z,10.89
2022-10-18T08:13:38.077Z,11.10
2022-10-18T08:16:12.105Z,11.26
2022-10-18T08:19:13.143Z,11.46
2022-10-18T08:21:43.733Z,11.63
2022-10-18T08:24:19.118Z,11.80
2022-10-18T08:26:54.218Z,12.01
2022-10-18T08:29:56.432Z,12.11
2022-10-18T08:33:04.391Z,12.27
2022-10-18T08:36:23.166Z,12.46
2022-10-18T08:38:58.618Z,12.57
2022-10-18T08:41:44.885Z,12.67
2022-10-18T08:44:22.345Z,12.72
2022-10-18T08:47:04.061Z,12.78
2022-10-18T08:50:05.215Z,12.82
2022-10-18T08:52:51.531Z,12.86
2022-10-18T08:55:30.524Z,12.96
2022-10-18T08:58:03.420Z,13.05
2022-10-18T09:00:38.022Z,13.11
2022-10-18T09:03:46.373Z,13.15
2022-10-18T09:06:27.492Z,13.15
2022-10-18T09:09:34.698Z,13.18
2022-10-18T09:12:33.509Z,13.36
2022-10-18T09:15:26.976Z,13.54
2022-10-18T09:18:40.238Z,13.70
2022-10-18T09:21:26.624Z,13.81
2022-10-18T09:24:15.036Z,14.01
2022-10-18T09:26:49.028Z,14.05
2022-10-18T09:29:34.596Z,14.18
2022-10-18T09:32:17.048Z,14.32
2022-10-18T09:34:59.001Z,14.49
2022-10-18T09:37:30.892Z,14.59
2022-10-18T09:40:18.140Z,14.67
2022-10-18T09:43:01.642Z,14.78
2022-10-18T09:45:36.998Z,14.77
2022-10-18T09:48:27.796Z,14.84
2022-10-18T09:51:08.447Z,14.99
2022-10-18T09:54:19.983Z,15.27
2022-10-18T09:57:11.827Z,15.49
2022-10-18T09:59:50.886Z,15.71
2022-10-18T10:02:22.931Z,15.96
2022-10-18T10:04:52.239Z,16.13
2022-10-18T10:07:28.589Z,16.30
2022-10-18T10:10:06.988Z,16.57
2022-10-18T10:12:38.028Z,16.81
2022-10-18T10:15:13.604Z,17.07
2022-10-18T10:17:43.978Z,17.25
2022-10-18T10:20:22.347Z,17.31
2022-10-18T10:22:52.717Z,17.34
2022-10-18T10:25:31.847Z,17.54
2022-10-18T10:28:16.675Z,17.79
2022-10-18T10:30:44.564Z,17.96
2022-10-18T10:33:33.414Z,18.13
2022-10-18T10:36:05.834Z,18.30
2022-10-18T10:38:33.561Z,18.31
2022-10-18T10:41:01.390Z,18.50
2022-10-18T10:43:38.329Z,18.74
2022-10-18T10:46:11.592Z,18.96
2022-10-18T10:49:03.283Z,19.38
2022-10-18T10:51:41.232Z,19.79
2022-10-18T10:54:17.343Z,20.11
2022-10-18T10:57:03.768Z,20.39
2022-10-18T10:59:48.540Z,20.61
2022-10-18T11:02:35.885Z,20.31
2022-10-18T11:05:29.279Z,20.19
2022-10-18T11:08:03.449Z,20.35
2022-10-18T11:10:50.468Z,20.46
2022-10-18T11:13:49.919Z,20.67
2022-10-18T11:16:49.533Z,20.82
2022-10-18T11:19:58.257Z,20.96
2022-10-18T11:22:36.410Z,21.40
2022-10-18T11:25:05.919Z,21.75
2022-10-18T11:27:42.200Z,21.88
2022-10-18T11:30:50.089Z,22.22
2022-10-18T11:34:29.770Z,22.76
2022-10-18T11:37:34.518Z,22.83
2022-10-18T11:40:50.607Z,22.69
2022-10-18T11:44:07.495Z,22.85
2022-10-18T12:02:40.119Z,25.32
2022-10-18T12:05:35.417Z,25.77
2022-10-18T12:08:10.162Z,25.73
2022-10-18T12:10:52.849Z,26.10
2022-10-18T12:13:40.429Z,26.36
2022-10-18T12:16:09.941Z,26.33
2022-10-18T12:18:47.994Z,26.19
2022-10-18T12:21:25.314Z,26.14
2022-10-18T12:23:59.445Z,25.84
2022-10-18T12:26:28.782Z,25.68
2022-10-18T12:29:10.532Z,25.66
2022-10-18T12:31:48.368Z,25.68
2022-10-18T12:34:32.874Z,25.35
2022-10-18T12:37:39.704Z,25.31
2022-10-18T12:40:21.408Z,25.23
2022-10-18T12:42:56.650Z,25.32
2022-10-18T12:45:35.579Z,25.38
2022-10-18T12:48:25.983Z,25.44
2022-10-18T12:51:13.127Z,25.08
2022-10-18T12:53:44.879Z,24.93
2022-10-18T12:56:37.035Z,25.11
2022-10-18T12:59:44.468Z,25.13
2022-10-18T13:02:21.139Z,25.40
2022-10-18T13:04:49.055Z,25.87
2022-10-18T13:07:21.767Z,26.35
2022-10-18T13:10:22.185Z,26.87
2022-10-18T13:13:29.564Z,26.66
2022-10-18T13:16:06.977Z,26.93
2022-10-18T13:18:51.894Z,26.97
2022-10-18T13:21:30.006Z,27.01
2022-10-18T13:24:45.439Z,27.32
2022-10-18T13:27:48.221Z,27.77
2022-10-18T13:30:32.335Z,27.95
2022-10-18T13:33:20.189Z,28.01
2022-10-18T14:06:49.158Z,27.96
2022-10-18T14:09:45.093Z,27.69
2022-10-18T14:12:25.327Z,26.89
2022-10-18T14:15:13.961Z,26.54
2022-10-18T14:17:48.771Z,26.58
2022-10-18T14:24:19.735Z,25.94
2022-10-18T14:27:17.179Z,25.43
2022-10-18T14:29:43.550Z,25.00
2022-10-18T14:32:23.604Z,24.47
2022-10-18T14:34:55.753Z,24.14
2022-10-18T14:37:35.943Z,23.75
2022-10-18T14:40:03.903Z,23.27
2022-10-18T14:42:30.176Z,22.76
2022-10-18T14:44:56.678Z,22.44
2022-10-18T14:47:27.877Z,22.32
2022-10-18T14:49:56.811Z,22.20
2022-10-18T14:52:26.706Z,21.82
2022-10-18T14:54:55.412Z,21.33
2022-10-18T14:57:28.692Z,21.03
2022-10-18T14:59:58.937Z,20.74
2022-10-18T15:02:27.718Z,20.46
2022-10-18T15:05:20.161Z,20.17
2022-10-18T15:08:36.501Z,19.83
2022-10-18T15:41:26.299Z,17.58
2022-10-18T15:53:42.821Z,16.54
2022-10-18T15:56:40.607Z,16.34
2022-10-18T15:59:26.607Z,16.15
2022-10-18T16:02:01.960Z,15.99
2022-10-18T16:04:59.179Z,15.81
2022-10-18T16:07:32.135Z,15.69
2022-10-18T16:10:21.610Z,15.54
2022-10-18T16:13:07.911Z,15.41
2022-10-18T16:15:35.111Z,15.30
2022-10-18T16:18:17.609Z,15.20
2022-10-18T16:21:01.227Z,15.09
2022-10-18T16:23:29.551Z,14.97
2022-10-18T16:25:57.146Z,14.87
2022-10-18T16:28:31.244Z,14.78
2022-10-18T16:31:47.475Z,14.71
2022-10-18T16:34:14.130Z,14.59
2022-10-18T16:36:41.048Z,14.62
2022-10-18T16:39:13.534Z,14.76
2022-10-18T16:41:40.114Z,14.83
2022-10-18T16:44:06.399Z,14.73
2022-10-18T16:46:33.772Z,14.65
2022-10-18T16:49:00.919Z,14.54
2022-10-18T16:51:27.238Z,14.40
2022-10-18T16:53:54.017Z,14.27
2022-10-18T16:56:23.733Z,14.19
2022-10-18T16:58:50.427Z,14.20
2022-10-18T17:01:19.277Z,14.33
2022-10-18T17:03:46.468Z,14.50
2022-10-18T17:06:16.303Z,14.57
2022-10-18T17:08:42.915Z,14.51
2022-10-18T17:11:10.270Z,14.47
2022-10-18T17:13:36.820Z,14.48
2022-10-18T17:16:03.289Z,14.45
2022-10-18T17:18:30.511Z,14.38
2022-10-18T17:20:59.939Z,14.33
2022-10-18T17:23:26.131Z,14.27
2022-10-18T17:26:05.597Z,14.20
2022-10-18T17:28:37.253Z,14.08
2022-10-18T17:31:07.168Z,14.04
2022-10-18T17:33:33.469Z,14.03
2022-10-18T17:36:00.887Z,14.08
2022-10-18T17:38:27.218Z,14.18
2022-10-18T17:40:54.004Z,14.24
2022-10-18T17:43:20.234Z,14.33
2022-10-18T17:45:48.510Z,14.39
2022-10-18T17:48:16.789Z,14.41
2022-10-18T17:50:42.993Z,14.43
2022-10-18T17:53:11.217Z,14.37
2022-10-18T17:55:37.509Z,14.30
2022-10-18T17:58:03.782Z,14.24
2022-10-18T18:00:30.106Z,14.16
2022-10-18T18:02:57.482Z,14.01
2022-10-18T18:05:24.075Z,13.99
2022-10-18T18:07:50.337Z,14.06
2022-10-18T18:10:16.679Z,14.03
2022-10-18T18:12:44.753Z,14.09
2022-10-18T18:15:11.904Z,14.13
2022-10-18T18:17:55.973Z,14.10
2022-10-18T18:20:23.687Z,14.10
2022-10-18T18:22:50.552Z,14.00
2022-10-18T18:25:16.988Z,13.84
2022-10-18T18:27:43.277Z,13.70
2022-10-18T18:30:10.191Z,13.63
2022-10-18T18:51:42.594Z,12.79
2022-10-18T18:54:20.284Z,12.68
2022-10-18T18:56:46.753Z,12.55
2022-10-18T18:59:14.565Z,12.44
2022-10-18T19:01:42.069Z,12.37
2022-10-18T19:04:10.066Z,12.31
2022-10-18T19:06:39.481Z,12.24
2022-10-18T19:09:17.749Z,12.19
2022-10-18T19:11:47.899Z,12.13
2022-10-18T19:14:14.796Z,12.08
2022-10-18T19:16:50.720Z,12.03
2022-10-18T19:19:22.688Z,11.97
2022-10-18T19:21:54.332Z,11.91
2022-10-18T19:24:23.307Z,11.85
2022-10-18T19:26:56.094Z,11.81
2022-10-18T19:29:27.070Z,11.76
2022-10-18T19:31:57.248Z,11.75
2022-10-18T19:34:28.010Z,11.69
2022-10-18T20:01:29.342Z,11.47
2022-10-18T20:03:57.187Z,11.47
2022-10-18T20:06:24.920Z,11.50
2022-10-18T20:08:53.003Z,11.51
2022-10-18T20:11:23.316Z,11.50
2022-10-18T20:13:51.182Z,11.46
2022-10-18T20:16:26.974Z,11.42
2022-10-18T20:19:01.886Z,11.37
2022-10-18T20:21:32.494Z,11.33
2022-10-18T20:24:00.103Z,11.26
2022-10-18T20:26:27.733Z,11.22
2022-10-18T20:28:57.586Z,11.17
2022-10-18T20:31:29.407Z,11.13
2022-10-18T20:33:59.671Z,11.12
2022-10-18T20:36:29.552Z,11.12
2022-10-18T20:38:58.041Z,11.14
2022-10-18T20:41:29.836Z,11.13
2022-10-18T20:44:01.042Z,11.13
2022-10-18T20:46:32.034Z,11.12
2022-10-18T20:49:00.069Z,11.14
2022-10-18T20:51:28.140Z,11.17
2022-10-18T20:53:55.844Z,11.15
2022-10-18T20:56:26.548Z,11.11
2022-10-18T20:58:57.030Z,11.03
2022-10-18T21:01:27.897Z,10.95
2022-10-18T21:03:58.696Z,10.89
2022-10-18T21:06:31.344Z,10.85
2022-10-18T21:09:01.601Z,10.79
2022-10-18T21:11:31.637Z,10.75
2022-10-18T21:14:02.612Z,10.72
2022-10-18T21:16:32.443Z,10.69
2022-10-18T21:19:05.567Z,10.64
2022-10-18T21:21:33.314Z,10.62
2022-10-18T21:24:03.960Z,10.59
2022-10-18T21:26:35.783Z,10.57
2022-10-18T21:29:04.763Z,10.55
2022-10-18T21:31:36.496Z,10.54
2022-10-18T21:34:06.947Z,10.54
2022-10-18T21:36:36.365Z,10.55
2022-10-18T21:39:06.136Z,10.56
2022-10-18T21:41:34.601Z,10.54
2022-10-18T21:44:05.591Z,10.50
2022-10-18T21:46:35.985Z,10.44
2022-10-18T21:49:03.777Z,10.41
2022-10-18T21:51:31.396Z,10.37
2022-10-18T21:53:59.099Z,10.33
2022-10-18T21:56:30.040Z,10.30
2022-10-18T21:58:59.035Z,10.27
2022-10-18T22:01:31.952Z,10.22
2022-10-18T22:04:01.231Z,10.20
2022-10-18T22:06:32.225Z,10.18
2022-10-18T22:09:02.480Z,10.19
2022-10-18T22:11:36.203Z,10.19
2022-10-18T22:14:03.895Z,10.18
2022-10-18T22:16:32.340Z,10.13
2022-10-18T22:19:03.470Z,10.07
2022-10-18T22:21:32.016Z,10.02
2022-10-18T22:24:05.075Z,9.97
2022-10-18T22:26:37.316Z,9.93
2022-10-18T22:29:10.275Z,9.91
2022-10-18T22:31:40.411Z,9.88
2022-10-18T22:34:11.806Z,9.84
2022-10-18T22:36:39.443Z,9.79
2022-10-18T22:39:07.890Z,9.72
2022-10-18T22:41:36.616Z,9.66
2022-10-18T22:44:04.270Z,9.59
2022-10-18T22:46:33.066Z,9.52
2022-10-18T22:49:00.752Z,9.46
2022-10-18T22:51:28.341Z,9.41
2022-10-18T22:53:56.314Z,9.34
2022-10-18T22:56:24.408Z,9.27
2022-10-18T22:58:52.769Z,9.20
2022-10-18T23:01:22.524Z,9.15
2022-10-18T23:03:54.884Z,9.11
2022-10-18T23:06:26.346Z,9.08
2022-10-18T23:08:56.537Z,9.08
2022-10-18T23:11:25.893Z,9.07
2022-10-18T23:13:54.339Z,9.07
2022-10-18T23:16:22.417Z,9.08
2022-10-18T23:18:51.894Z,9.07
2022-10-18T23:21:20.557Z,9.07
2022-10-18T23:23:48.180Z,9.06
2022-10-18T23:26:18.852Z,9.03
2022-10-18T23:28:48.767Z,9.01
2022-10-18T23:31:20.847Z,8.98
2022-10-18T23:33:51.518Z,8.97
2022-10-18T23:36:19.432Z,8.96
2022-10-18T23:38:47.096Z,8.95
2022-10-18T23:41:16.157Z,8.93
2022-10-18T23:43:44.274Z,8.89
2022-10-18T23:46:13.373Z,8.84
2022-10-18T23:48:41.446Z,8.79
2022-10-18T23:51:13.193Z,8.73
2022-10-18T23:53:41.282Z,8.67
2022-10-18T23:56:11.523Z,8.62
2022-10-18T23:58:39.570Z,8.59
